Time;durP1;ratioP1;P1;durP2;ratioP2;P2;SDS_P1;SDS_P2;PMS_P1;PMS_P2;Temp;Humidity;BMP_temperature;BMP_pressure;BME280_temperature;BME280_humidity;BME280_pressure;Samples;Min_cycle;Max_cycle;Signal;HPM_P1;HPM_P2
2021/12/07 00:00:38;;;;;;;19.27;9.50;;;;;;;5.11;82.09;92114.84;5101878;28;20484;-47
2021/12/07 00:03:03;;;;;;;7.25;4.03;;;;;;;5.20;81.90;92106.06;5103990;28;20043;-47
2021/12/07 00:05:29;;;;;;;6.45;3.60;;;;;;;5.41;81.48;92125.06;5103497;28;20059;-47
2021/12/07 00:07:54;;;;;;;5.55;3.17;;;;;;;5.44;81.17;92113.72;5101584;28;20089;-45
2021/12/07 00:10:20;;;;;;;8.48;5.30;;;;;;;5.51;81.08;92104.06;5101247;28;20036;-46
2021/12/07 00:12:46;;;;;;;21.15;11.43;;;;;;;5.55;80.64;92112.63;5100381;28;20070;-52
2021/12/07 00:15:16;;;;;;;9.45;6.20;;;;;;;5.48;80.74;92124.34;5100746;28;20958;-47
2021/12/07 00:17:43;;;;;;;13.25;8.20;;;;;;;5.29;81.07;92133.63;5102620;28;20041;-50
2021/12/07 00:20:12;;;;;;;15.85;10.27;;;;;;;5.46;80.53;92126.91;5101015;28;20035;-48
2021/12/07 00:22:38;;;;;;;2.92;1.83;;;;;;;5.39;80.06;92133.81;5099969;28;20036;-46
2021/12/07 00:25:06;;;;;;;3.95;2.53;;;;;;;5.46;80.15;92127.59;5100961;28;20500;-49
2021/12/07 00:27:31;;;;;;;11.05;6.68;;;;;;;5.41;79.70;92125.78;5101231;28;20066;-48
2021/12/07 00:29:57;;;;;;;4.68;3.25;;;;;;;5.36;79.49;92124.69;5102832;28;20047;-46
2021/12/07 00:32:29;;;;;;;1.73;1.60;;;;;;;5.38;78.85;92121.41;5103467;28;20032;-44
2021/12/07 00:35:18;;;;;;;5.30;4.03;;;;;;;5.26;79.58;92121.03;5097453;28;20040;-47
2021/12/07 00:37:51;;;;;;;2.22;1.98;;;;;;;5.20;79.62;92117.75;5100074;28;20039;-47
2021/12/07 00:40:17;;;;;;;2.45;2.25;;;;;;;5.18;79.50;92103.16;5099800;28;20028;-47
2021/12/07 00:42:44;;;;;;;3.33;2.42;;;;;;;5.06;79.79;92113.72;5099961;28;20024;-49
2021/12/07 00:45:12;;;;;;;4.22;3.58;;;;;;;5.00;80.56;92107.69;5101272;28;20039;-50
2021/12/07 00:47:37;;;;;;;7.03;4.18;;;;;;;4.99;81.15;92097.28;5101245;28;20039;-50
2021/12/07 00:50:06;;;;;;;3.03;2.47;;;;;;;4.99;81.22;92108.25;5102782;28;20436;-47
2021/12/07 00:52:31;;;;;;;2.67;1.52;;;;;;;5.01;81.21;92094.75;5101027;28;20065;-49
2021/12/07 00:54:57;;;;;;;2.22;1.40;;;;;;;5.12;81.00;92088.91;5098239;28;20032;-49
2021/12/07 00:57:25;;;;;;;3.00;1.95;;;;;;;5.17;81.46;92094.22;5098206;28;20100;-45
2021/12/07 00:59:50;;;;;;;6.53;4.80;;;;;;;5.29;81.66;92094.56;5101939;28;20031;-50
2021/12/07 01:02:16;;;;;;;6.35;2.83;;;;;;;5.26;81.04;92095.69;5099450;28;20432;-47
2021/12/07 01:04:50;;;;;;;3.17;2.85;;;;;;;5.25;80.41;92084.00;5100851;28;20057;-51
2021/12/07 01:07:34;;;;;;;1.60;1.50;;;;;;;5.16;79.36;92064.66;5097344;28;20036;-48
2021/12/07 01:26:32;;;;;;;2.08;1.77;;;;;;;4.83;82.19;92052.09;5098462;28;20596;-48
2021/12/07 01:28:57;;;;;;;4.25;3.85;;;;;;;4.90;81.79;92054.81;5098313;28;20111;-48
2021/12/07 01:31:31;;;;;;;1.85;1.30;;;;;;;4.80;81.49;92045.69;5098409;28;20110;-43
2021/12/07 01:39:57;;;;;;;0.98;0.88;;;;;;;4.61;80.79;92034.38;5097535;28;20767;-47
2021/12/07 02:00:50;;;;;;;1.63;1.10;;;;;;;4.29;82.61;92014.97;5097974;28;20040;-44
2021/12/07 02:03:16;;;;;;;0.60;0.60;;;;;;;4.43;81.82;92027.22;5104271;28;20405;-49
2021/12/07 02:05:42;;;;;;;0.70;0.70;;;;;;;4.31;81.69;92054.16;5104171;28;20027;-45
2021/12/07 02:08:08;;;;;;;1.08;0.98;;;;;;;4.40;81.71;92061.09;5102599;28;20080;-45
2021/12/07 02:10:34;;;;;;;24.00;13.23;;;;;;;4.42;81.20;92033.94;5100690;28;20431;-48
2021/12/07 02:13:06;;;;;;;2.42;2.20;;;;;;;4.42;80.58;92026.50;5105220;28;20032;-46
2021/12/07 02:15:33;;;;;;;2.05;1.80;;;;;;;4.50;79.96;92038.16;5101524;28;20028;-49
2021/12/07 02:17:59;;;;;;;1.92;1.13;;;;;;;4.60;79.36;92038.38;5102477;28;20055;-45
2021/12/07 02:20:26;;;;;;;3.60;2.20;;;;;;;4.69;80.39;92039.84;5102346;28;20034;-45
2021/12/07 02:22:52;;;;;;;6.93;2.40;;;;;;;4.60;80.95;92030.16;5100771;28;20126;-45
2021/12/07 02:25:18;;;;;;;3.83;2.72;;;;;;;4.64;80.67;92030.53;5100633;28;20112;-44
2021/12/07 02:27:46;;;;;;;3.40;2.25;;;;;;;4.16;81.02;92026.78;5103010;28;20034;-44
2021/12/07 02:30:15;;;;;;;3.00;1.90;;;;;;;4.07;83.32;92027.28;5101702;28;20105;-44
2021/12/07 02:32:41;;;;;;;3.03;2.05;;;;;;;4.22;83.45;92045.75;5104290;28;20053;-45
2021/12/07 02:35:09;;;;;;;0.73;0.68;;;;;;;4.08;82.35;92039.69;5104111;28;20023;-46
2021/12/07 02:37:35;;;;;;;3.30;1.38;;;;;;;4.31;82.36;92062.34;5102400;28;20040;-47
2021/12/07 02:40:01;;;;;;;6.70;2.90;;;;;;;4.31;82.70;92070.53;5104572;28;20531;-49
2021/12/07 02:42:27;;;;;;;6.82;4.60;;;;;;;4.35;82.42;92054.50;5100423;28;20102;-48
2021/12/07 02:44:53;;;;;;;8.40;4.45;;;;;;;4.45;81.44;92044.53;5103522;28;20040;-53
2021/12/07 02:47:20;;;;;;;1.83;1.58;;;;;;;4.33;81.11;92046.13;5103374;28;20028;-51
2021/12/07 02:49:46;;;;;;;1.55;1.45;;;;;;;4.37;80.85;92054.00;5101474;28;20028;-48
2021/12/07 02:52:12;;;;;;;1.08;1.08;;;;;;;4.31;81.32;92056.16;5103277;28;20031;-47
2021/12/07 02:54:44;;;;;;;1.35;1.10;;;;;;;4.23;80.99;92053.41;5104823;28;20039;-44
2021/12/07 02:57:11;;;;;;;0.40;0.40;;;;;;;4.04;81.11;92052.97;5101102;28;20051;-44
2021/12/07 02:59:42;;;;;;;2.00;1.42;;;;;;;4.03;81.30;92048.06;5101471;28;20435;-46
2021/12/07 03:02:10;;;;;;;3.47;0.88;;;;;;;4.06;81.47;92044.97;5101217;28;20055;-44
2021/12/07 03:04:42;;;;;;;6.65;6.05;;;;;;;4.02;81.18;92030.19;5101830;28;20031;-44
2021/12/07 03:08:21;;;;;;;0.95;0.35;;;;;;;3.85;80.71;92025.94;5103686;28;20031;-43
2021/12/07 03:26:27;;;;;;;2.33;1.10;;;;;;;4.08;82.46;92034.22;5103148;28;20031;-45
2021/12/07 03:28:55;;;;;;;1.75;1.45;;;;;;;4.23;82.38;92026.09;5104407;28;20027;-46
2021/12/07 03:31:21;;;;;;;1.20;1.10;;;;;;;4.25;81.80;92020.06;5100641;28;20039;-48
2021/12/07 03:33:47;;;;;;;4.10;2.97;;;;;;;4.21;81.39;92017.69;5099362;28;20035;-46
2021/12/07 03:36:13;;;;;;;2.25;1.40;;;;;;;4.24;81.03;92015.88;5103702;28;20096;-45
2021/12/07 03:38:40;;;;;;;1.92;1.42;;;;;;;3.95;81.00;91987.94;5102021;28;20478;-46
2021/12/07 03:41:06;;;;;;;2.25;1.65;;;;;;;4.17;80.90;92017.31;5100056;28;20024;-48
2021/12/07 03:43:32;;;;;;;3.67;1.90;;;;;;;4.18;81.34;92001.69;5100319;28;20394;-44
2021/12/07 03:45:58;;;;;;;1.95;1.65;;;;;;;4.19;81.64;91992.94;5100549;28;20046;-44
2021/12/07 03:48:24;;;;;;;2.60;1.25;;;;;;;4.22;80.86;91997.28;5103160;28;20098;-47
2021/12/07 03:50:50;;;;;;;1.60;1.10;;;;;;;3.89;81.40;91976.47;5098904;28;20028;-46
2021/12/07 03:53:16;;;;;;;4.28;2.00;;;;;;;4.16;82.05;91977.63;5098700;28;20034;-48
2021/12/07 03:55:41;;;;;;;1.35;1.00;;;;;;;4.35;81.17;92004.63;5103204;28;20032;-47
2021/12/07 03:58:08;;;;;;;4.85;2.33;;;;;;;4.24;81.24;91999.50;5099517;28;20028;-47
2021/12/07 04:00:36;;;;;;;1.73;1.00;;;;;;;4.23;81.25;91995.28;5102440;28;20028;-48
2021/12/07 04:03:07;;;;;;;1.27;1.15;;;;;;;4.36;81.21;91987.69;5102343;28;20039;-50
2021/12/07 04:05:33;;;;;;;1.30;0.93;;;;;;;4.15;80.82;92000.75;5101531;28;20034;-48
2021/12/07 04:07:59;;;;;;;1.60;1.10;;;;;;;4.30;79.37;92000.78;5101799;28;20031;-46
2021/12/07 04:10:25;;;;;;;1.92;0.98;;;;;;;4.41;79.32;91994.25;5101597;28;20031;-48
2021/12/07 04:12:52;;;;;;;1.10;0.80;;;;;;;4.29;79.87;91998.59;5100325;28;20036;-47
2021/12/07 04:15:18;;;;;;;0.80;0.80;;;;;;;4.29;80.53;92004.78;5098139;28;20039;-47
2021/12/07 04:17:44;;;;;;;1.67;1.30;;;;;;;4.34;80.38;92005.88;5101207;28;20073;-46
2021/12/07 04:20:11;;;;;;;1.63;1.25;;;;;;;4.40;80.50;92007.19;5100266;28;20412;-47
2021/12/07 04:22:37;;;;;;;1.50;1.30;;;;;;;4.52;79.74;92008.31;5098795;28;20023;-46
2021/12/07 04:25:11;;;;;;;1.60;1.20;;;;;;;4.51;79.69;92006.84;5101988;28;20108;-44
2021/12/07 04:27:39;;;;;;;3.28;0.90;;;;;;;4.60;79.25;92009.03;5099194;28;20424;-46
2021/12/07 04:30:16;;;;;;;1.35;0.85;;;;;;;4.69;78.83;91998.84;5098413;28;20023;-45
2021/12/07 04:32:43;;;;;;;1.55;1.20;;;;;;;4.70;78.93;92003.75;5099689;28;20084;-47
2021/12/07 04:35:10;;;;;;;2.83;0.95;;;;;;;4.65;78.76;92007.41;5098798;28;20078;-47
2021/12/07 04:37:36;;;;;;;1.10;1.00;;;;;;;4.40;80.56;92004.44;5100849;28;20050;-47
2021/12/07 04:40:03;;;;;;;4.63;3.28;;;;;;;4.36;80.93;91984.94;5100834;28;20118;-46
2021/12/07 04:42:29;;;;;;;14.05;7.93;;;;;;;4.07;81.68;91980.88;5100898;28;20034;-45
2021/12/07 04:44:58;;;;;;;32.88;15.70;;;;;;;4.35;81.73;91993.69;5099649;28;20124;-48
2021/12/07 04:48:26;;;;;;;14.27;8.65;;;;;;;4.11;81.14;91969.59;5099073;28;20031;-46
2021/12/07 04:50:32;;;;;;;16.80;8.95;;;;;;;4.37;82.28;92011.00;5095136;28;20043;-46
2021/12/07 04:58:25;;;;;;;15.45;8.43;;;;;;;4.31;82.13;91979.66;5098754;28;20047;-45
2021/12/07 05:00:52;;;;;;;12.23;5.30;;;;;;;4.19;82.88;91951.22;5099660;28;20496;-46
2021/12/07 05:03:18;;;;;;;10.88;5.57;;;;;;;4.37;82.74;91993.88;5100893;28;20631;-46
2021/12/07 05:05:52;;;;;;;11.85;6.57;;;;;;;4.40;82.42;91988.06;5098565;28;20032;-47
2021/12/07 05:08:33;;;;;;;5.90;3.17;;;;;;;4.46;81.79;91987.88;5099878;28;20028;-45
2021/12/07 05:11:48;;;;;;;5.80;3.13;;;;;;;4.50;81.89;91991.69;5100482;28;20026;-47
2021/12/07 05:14:11;;;;;;;3.60;1.63;;;;;;;4.65;82.34;91988.28;5095788;28;20043;-47
2021/12/07 05:16:49;;;;;;;1.52;1.17;;;;;;;4.63;82.09;91984.63;5099497;28;20034;-46
2021/12/07 05:24:24;;;;;;;10.93;6.90;;;;;;;4.44;81.40;91988.41;5101684;28;20042;-48
2021/12/07 05:37:48;;;;;;;6.80;6.03;;;;;;;4.45;81.24;91973.50;5085686;28;20040;-49
2021/12/07 05:40:17;;;;;;;7.05;6.35;;;;;;;4.54;82.07;91989.34;5101355;28;20496;-46
2021/12/07 05:42:44;;;;;;;6.70;4.10;;;;;;;4.52;81.39;91983.72;5098823;28;20118;-45
2021/12/07 05:45:13;;;;;;;4.25;3.83;;;;;;;4.53;82.20;91976.22;5099016;28;20075;-43
2021/12/07 05:47:40;;;;;;;2.67;1.88;;;;;;;4.52;81.78;91974.78;5099149;28;20054;-49
2021/12/07 05:50:08;;;;;;;2.38;1.70;;;;;;;4.56;82.24;91978.59;5101565;28;20157;-45
2021/12/07 05:52:33;;;;;;;4.75;2.28;;;;;;;4.60;82.20;91976.25;5100914;28;20088;-45
2021/12/07 05:54:59;;;;;;;5.28;2.88;;;;;;;4.46;82.16;91974.94;5100810;28;20123;-46
2021/12/07 05:57:25;;;;;;;4.82;3.13;;;;;;;4.49;81.96;91976.59;5100238;28;20038;-44
2021/12/07 05:59:50;;;;;;;3.88;2.78;;;;;;;4.49;81.82;91975.84;5102128;28;20036;-45
2021/12/07 06:02:16;;;;;;;4.78;3.53;;;;;;;4.50;81.63;91971.84;5099434;28;20062;-46
2021/12/07 06:04:41;;;;;;;4.13;3.17;;;;;;;4.37;81.50;91975.50;5099517;28;20045;-46
2021/12/07 06:07:09;;;;;;;2.95;1.98;;;;;;;4.44;81.37;91968.56;5098861;28;20020;-46
2021/12/07 06:09:35;;;;;;;10.50;6.22;;;;;;;4.42;81.30;91980.03;5098921;28;20417;-46
2021/12/07 06:12:00;;;;;;;15.55;8.35;;;;;;;4.46;81.37;91977.66;5098729;28;20035;-46
2021/12/07 06:14:44;;;;;;;20.67;11.10;;;;;;;4.45;81.51;91980.94;5101181;28;20036;-46
2021/12/07 06:17:11;;;;;;;10.15;5.78;;;;;;;4.45;80.84;91978.22;5100538;28;20023;-45
2021/12/07 06:19:37;;;;;;;9.45;5.25;;;;;;;4.49;80.50;91962.94;5098416;28;20122;-48
2021/12/07 06:22:04;;;;;;;6.63;4.55;;;;;;;4.54;80.82;91978.44;5098503;28;20026;-47
2021/12/07 06:24:30;;;;;;;2.72;1.60;;;;;;;4.51;80.62;91984.97;5097685;28;20028;-45
2021/12/07 06:26:55;;;;;;;9.45;3.95;;;;;;;4.43;79.19;91984.25;5100148;28;20077;-48
2021/12/07 06:29:21;;;;;;;6.25;2.72;;;;;;;4.46;78.47;91983.13;5101577;28;20020;-47
2021/12/07 06:31:46;;;;;;;3.70;1.77;;;;;;;4.31;78.07;91987.88;5097758;28;20136;-47
2021/12/07 06:34:12;;;;;;;7.65;3.63;;;;;;;4.12;79.01;91969.06;5093919;28;20428;-50
2021/12/07 06:36:38;;;;;;;7.00;4.47;;;;;;;4.30;80.09;91989.13;5087078;28;20530;-47
2021/12/07 06:39:06;;;;;;;4.45;3.85;;;;;;;4.40;80.33;91988.06;5088792;28;20039;-47
2021/12/07 06:41:31;;;;;;;159.82;13.27;;;;;;;4.46;80.06;91988.59;5102196;28;20050;-47
2021/12/07 06:43:57;;;;;;;7.40;3.15;;;;;;;4.43;79.31;91978.78;5105814;27;20054;-46
2021/12/07 06:46:22;;;;;;;5.10;4.20;;;;;;;4.48;78.00;91986.06;5105426;28;20513;-47
2021/12/07 06:48:48;;;;;;;17.50;4.05;;;;;;;4.37;78.47;91985.69;5112974;28;20115;-50
2021/12/07 06:51:13;;;;;;;4.28;2.40;;;;;;;4.31;78.87;91982.41;5113111;28;20358;-46
2021/12/07 06:53:39;;;;;;;6.97;2.55;;;;;;;4.23;78.70;91981.63;5109989;28;20312;-49
2021/12/07 06:56:06;;;;;;;5.80;3.17;;;;;;;4.22;78.43;91974.72;5099811;28;20028;-48
2021/12/07 06:58:33;;;;;;;7.50;5.05;;;;;;;3.93;79.13;91946.06;5102829;28;20032;-49
2021/12/07 07:01:00;;;;;;;8.35;4.18;;;;;;;4.09;79.36;91970.16;5100518;28;20077;-48
2021/12/07 07:03:25;;;;;;;9.65;5.28;;;;;;;4.13;79.05;91973.25;5094228;28;20508;-48
2021/12/07 07:05:51;;;;;;;11.20;6.43;;;;;;;4.17;78.93;91967.44;5099812;28;20012;-46
2021/12/07 07:08:17;;;;;;;19.58;11.93;;;;;;;4.11;78.71;91964.16;5099730;28;20476;-49
2021/12/07 07:10:42;;;;;;;5.97;4.20;;;;;;;4.20;78.90;91969.78;5101353;28;20016;-47
2021/12/07 07:13:08;;;;;;;4.60;3.10;;;;;;;4.25;79.04;91968.91;5099262;28;20459;-50
2021/12/07 07:15:34;;;;;;;6.03;2.75;;;;;;;4.28;79.40;91967.09;5101903;28;20023;-45
2021/12/07 07:18:00;;;;;;;8.40;4.95;;;;;;;4.12;78.34;91973.78;5098618;28;20036;-45
2021/12/07 07:20:27;;;;;;;9.60;5.25;;;;;;;4.05;78.89;91972.50;5101955;28;20028;-46
2021/12/07 07:22:53;;;;;;;6.63;3.83;;;;;;;3.97;77.49;91974.47;5102104;28;20035;-49
2021/12/07 07:25:18;;;;;;;3.92;2.60;;;;;;;3.57;78.98;91971.41;5102804;28;20016;-45
2021/12/07 07:27:44;;;;;;;2.33;2.13;;;;;;;3.24;79.27;91974.34;5107162;28;20666;-45
2021/12/07 07:30:12;;;;;;;2.15;1.90;;;;;;;3.20;81.43;91984.88;5098415;28;20024;-45
2021/12/07 07:32:39;;;;;;;1.83;1.60;;;;;;;3.08;80.90;91976.97;5098933;28;20089;-44
2021/12/07 07:35:07;;;;;;;2.78;2.55;;;;;;;2.92;80.70;91978.16;5097014;28;20028;-44
2021/12/07 07:37:33;;;;;;;1.38;1.27;;;;;;;3.12;80.87;91973.19;5089504;28;20031;-47
2021/12/07 07:39:58;;;;;;;3.72;2.65;;;;;;;3.16;80.96;91968.13;5089714;28;20028;-50
2021/12/07 07:42:24;;;;;;;6.15;3.67;;;;;;;3.35;79.79;91972.06;5089646;28;20111;-48
2021/12/07 07:44:49;;;;;;;7.40;4.88;;;;;;;3.32;81.06;91966.94;5107235;28;20039;-48
2021/12/07 07:47:15;;;;;;;16.35;12.57;;;;;;;3.45;81.75;91964.09;5110123;27;20081;-50
2021/12/07 07:49:41;;;;;;;8.35;6.78;;;;;;;3.54;80.77;91971.78;5111014;28;20572;-47
2021/12/07 07:52:06;;;;;;;5.13;3.95;;;;;;;3.66;80.19;91960.00;5111273;28;20031;-47
2021/12/07 07:54:32;;;;;;;4.68;4.20;;;;;;;3.54;80.25;91958.13;5111322;28;20031;-46
2021/12/07 07:56:57;;;;;;;4.20;3.80;;;;;;;3.49;80.74;91957.00;5111393;28;20039;-45
2021/12/07 07:59:23;;;;;;;4.85;3.25;;;;;;;3.56;80.08;91956.31;5109893;28;20035;-46
2021/12/07 08:01:48;;;;;;;4.95;3.75;;;;;;;3.63;80.52;91952.16;5111341;28;20058;-44
2021/12/07 08:04:14;;;;;;;3.80;2.42;;;;;;;3.62;81.04;91956.16;5110999;28;20031;-45
2021/12/07 08:06:40;;;;;;;11.45;4.90;;;;;;;3.73;80.21;91956.56;5111038;28;20104;-45
2021/12/07 08:09:08;;;;;;;4.50;3.45;;;;;;;3.77;80.12;91951.47;5111137;28;20023;-46
2021/12/07 08:11:34;;;;;;;3.55;2.65;;;;;;;3.81;79.43;91940.94;5111208;28;20023;-44
2021/12/07 08:14:01;;;;;;;2.58;2.35;;;;;;;3.77;78.96;91965.13;5111143;28;20393;-47
2021/12/07 08:16:27;;;;;;;4.95;3.13;;;;;;;3.88;78.78;91960.63;5110703;27;20023;-45
2021/12/07 08:18:53;;;;;;;6.95;2.45;;;;;;;3.83;78.25;91973.16;5110604;28;20026;-49
2021/12/07 08:21:20;;;;;;;3.60;1.75;;;;;;;3.96;78.47;91964.84;5110944;28;20044;-46
2021/12/07 08:23:46;;;;;;;5.20;3.58;;;;;;;3.96;78.46;91970.31;5110604;28;20432;-48
2021/12/07 08:26:14;;;;;;;6.00;2.53;;;;;;;3.94;77.86;91972.13;5110610;28;20019;-50
2021/12/07 08:28:40;;;;;;;2.72;1.70;;;;;;;3.96;77.55;91978.50;5110614;28;20035;-45
2021/12/07 08:31:06;;;;;;;10.75;5.90;;;;;;;3.66;78.28;91978.38;5109881;28;20104;-48
2021/12/07 08:33:32;;;;;;;56.60;9.63;;;;;;;3.47;79.14;91970.47;5099964;28;20020;-48
2021/12/07 08:35:58;;;;;;;8.93;5.47;;;;;;;3.49;78.88;91981.56;5095792;28;20485;-45
2021/12/07 08:38:24;;;;;;;10.15;6.18;;;;;;;3.37;78.58;91987.88;5095307;28;20026;-47
2021/12/07 08:40:53;;;;;;;8.73;5.63;;;;;;;3.24;78.43;91977.81;5096413;28;20031;-46
2021/12/07 08:43:24;;;;;;;16.67;7.93;;;;;;;3.23;79.49;91968.16;5099938;28;20023;-47
2021/12/07 08:45:51;;;;;;;29.73;11.57;;;;;;;3.19;80.44;91992.31;5096654;28;20040;-47
2021/12/07 08:48:17;;;;;;;15.30;8.65;;;;;;;3.00;80.48;92000.00;5104577;28;20412;-47
2021/12/07 08:50:44;;;;;;;11.30;4.43;;;;;;;3.01;79.78;91991.28;5101194;28;20020;-44
2021/12/07 08:53:12;;;;;;;15.82;7.20;;;;;;;3.00;80.15;91995.28;5104513;28;20023;-47
2021/12/07 09:01:10;;;;;;;10.13;6.05;;;;;;;3.02;79.03;91983.84;5099199;28;20035;-46
2021/12/07 09:03:36;;;;;;;9.65;5.95;;;;;;;3.13;79.05;91991.00;5101124;28;20034;-47
2021/12/07 09:06:01;;;;;;;24.85;11.48;;;;;;;3.17;79.41;91988.66;5100244;28;20019;-47
2021/12/07 09:08:27;;;;;;;12.02;7.63;;;;;;;3.08;79.05;91996.06;5098741;28;20030;-48
2021/12/07 09:10:53;;;;;;;10.98;5.88;;;;;;;3.02;78.57;91994.75;5098668;28;20019;-47
2021/12/07 09:13:20;;;;;;;8.85;5.03;;;;;;;3.17;78.97;91996.84;5100450;28;20023;-48
2021/12/07 09:15:46;;;;;;;8.05;5.15;;;;;;;3.20;78.87;91993.06;5098294;28;20024;-46
2021/12/07 09:18:12;;;;;;;14.70;8.48;;;;;;;3.32;78.40;91994.94;5098592;28;20019;-48
2021/12/07 09:20:37;;;;;;;25.23;11.70;;;;;;;3.49;78.49;91991.75;5099101;28;20090;-45
2021/12/07 09:23:03;;;;;;;14.48;8.88;;;;;;;2.97;77.90;91998.34;5097017;28;20016;-46
2021/12/07 09:25:29;;;;;;;7.72;4.80;;;;;;;2.77;77.83;91997.13;5098435;28;20015;-45
2021/12/07 09:27:55;;;;;;;9.18;4.35;;;;;;;2.75;78.69;91985.31;5099399;28;20147;-46
2021/12/07 09:30:21;;;;;;;16.13;8.82;;;;;;;2.99;78.75;91993.09;5097172;28;20032;-47
2021/12/07 09:32:48;;;;;;;14.77;8.63;;;;;;;2.98;77.63;91986.19;5093602;28;20036;-50
2021/12/07 09:35:15;;;;;;;21.88;12.45;;;;;;;2.81;77.99;91981.19;5097597;28;20454;-47
2021/12/07 09:37:41;;;;;;;11.70;7.35;;;;;;;2.77;78.06;91980.75;5098471;28;20031;-49
2021/12/07 09:40:11;;;;;;;9.85;6.05;;;;;;;2.71;79.80;91979.44;5096459;28;20039;-46
2021/12/07 09:42:36;;;;;;;16.25;10.30;;;;;;;2.93;78.63;91971.44;5096969;28;20033;-46
2021/12/07 09:45:05;;;;;;;10.18;5.97;;;;;;;3.02;78.83;91973.69;5097249;28;20032;-46
2021/12/07 09:47:30;;;;;;;3.37;2.83;;;;;;;3.11;77.91;91971.72;5097014;28;20047;-51
2021/12/07 09:49:56;;;;;;;11.00;5.32;;;;;;;2.92;77.68;91975.41;5097630;28;20063;-45
2021/12/07 09:52:21;;;;;;;6.65;4.90;;;;;;;2.88;77.74;91966.16;5099366;28;20394;-44
2021/12/07 09:54:47;;;;;;;11.82;6.72;;;;;;;2.87;77.91;91987.22;5097676;28;20031;-44
2021/12/07 09:57:13;;;;;;;2.35;2.10;;;;;;;2.85;77.90;91986.28;5098044;28;20027;-44
2021/12/07 09:59:38;;;;;;;2.90;1.75;;;;;;;2.73;77.38;91980.38;5098183;28;20024;-45
2021/12/07 10:02:06;;;;;;;5.18;3.58;;;;;;;2.58;78.17;91982.28;5096214;28;20024;-47
2021/12/07 10:04:32;;;;;;;3.63;3.17;;;;;;;2.76;78.53;91975.84;5098252;28;20024;-49
2021/12/07 10:06:58;;;;;;;8.18;5.35;;;;;;;2.85;78.20;91976.13;5095282;28;20441;-47
2021/12/07 10:09:24;;;;;;;13.32;7.57;;;;;;;2.73;79.09;91969.47;5096126;28;20083;-48
2021/12/07 10:11:53;;;;;;;12.43;8.32;;;;;;;3.03;78.23;91977.84;5095594;28;20026;-46
2021/12/07 10:14:20;;;;;;;6.75;4.47;;;;;;;3.11;77.19;91971.72;5102039;28;20028;-44
2021/12/07 10:16:48;;;;;;;6.88;4.53;;;;;;;3.04;76.96;91960.25;5097747;28;20031;-53
2021/12/07 10:19:26;;;;;;;7.38;5.50;;;;;;;3.10;76.97;91954.63;5099688;28;20030;-48
2021/12/07 10:22:06;;;;;;;9.82;6.63;;;;;;;3.11;77.45;91956.09;5100192;28;20031;-50
2021/12/07 10:24:42;;;;;;;6.30;3.88;;;;;;;3.13;76.41;91955.56;5100008;28;20028;-51
2021/12/07 10:27:08;;;;;;;5.43;3.53;;;;;;;3.05;76.84;91952.81;5098181;28;20042;-52
2021/12/07 10:29:35;;;;;;;4.70;3.83;;;;;;;3.12;76.32;91963.00;5100510;28;20024;-50
2021/12/07 10:32:05;;;;;;;6.78;5.05;;;;;;;3.18;76.63;91954.69;5101375;28;20079;-53
2021/12/07 10:34:37;;;;;;;4.40;3.10;;;;;;;3.24;76.36;91947.81;5100257;28;20090;-49
2021/12/07 10:37:10;;;;;;;4.00;3.17;;;;;;;3.25;75.67;91949.25;5097831;28;20059;-51
2021/12/07 10:39:51;;;;;;;4.53;3.22;;;;;;;3.20;76.20;91938.50;5100656;28;20462;-49
2021/12/07 10:42:27;;;;;;;4.35;2.88;;;;;;;3.12;75.76;91937.75;5100315;28;20077;-52
2021/12/07 10:44:53;;;;;;;2.90;2.55;;;;;;;3.23;75.68;91953.81;5101172;28;20117;-52
2021/12/07 10:47:21;;;;;;;4.07;2.80;;;;;;;3.25;76.24;91937.63;5101387;28;20028;-52
2021/12/07 10:49:58;;;;;;;7.72;4.80;;;;;;;3.09;75.97;91925.91;5102953;28;20035;-50
2021/12/07 10:52:34;;;;;;;5.00;3.25;;;;;;;3.29;76.12;91925.09;5099362;28;20509;-51
2021/12/07 10:55:02;;;;;;;3.08;2.78;;;;;;;3.34;75.74;91924.22;5101064;28;20028;-50
2021/12/07 10:57:34;;;;;;;5.73;4.00;;;;;;;3.44;75.96;91929.91;5102310;28;20028;-53
2021/12/07 11:00:20;;;;;;;10.00;3.97;;;;;;;3.25;75.10;91918.56;5100113;27;20437;-51
2021/12/07 11:02:56;;;;;;;6.30;3.25;;;;;;;3.49;74.43;91915.34;5100566;28;20067;-50
2021/12/07 11:05:50;;;;;;;10.63;7.50;;;;;;;3.38;74.83;91918.44;5100148;28;20020;-52
2021/12/07 11:08:18;;;;;;;4.45;2.80;;;;;;;3.18;76.45;91921.97;5103339;28;20027;-54
2021/12/07 11:10:48;;;;;;;7.15;5.10;;;;;;;3.05;75.96;91920.09;5099379;28;20143;-56
2021/12/07 11:13:23;;;;;;;4.22;3.20;;;;;;;3.04;76.31;91929.50;5101267;28;20097;-54
2021/12/07 11:16:13;;;;;;;5.93;4.57;;;;;;;3.08;76.54;91924.44;5101360;28;20119;-52
2021/12/07 11:18:42;;;;;;;5.65;3.88;;;;;;;2.98;76.80;91929.69;5101434;28;20016;-51
2021/12/07 11:21:11;;;;;;;7.45;5.15;;;;;;;2.79;77.25;91925.75;5097845;28;20555;-49
2021/12/07 11:23:41;;;;;;;;;;;;;;;2.77;77.56;91928.28;5102694;28;20036;-51
2021/12/07 11:31:57;;;;;;;7.57;4.53;;;;;;;2.58;78.28;91939.38;5101919;28;20108;-52
2021/12/07 11:34:23;;;;;;;7.32;5.15;;;;;;;2.67;78.05;91925.28;5101083;28;20019;-55
2021/12/07 11:36:57;;;;;;;6.38;4.85;;;;;;;2.71;77.82;91914.03;5101325;28;20028;-50
2021/12/07 11:39:35;;;;;;;4.68;4.28;;;;;;;2.68;77.55;91913.13;5098244;28;20459;-53
2021/12/07 11:42:08;;;;;;;6.13;4.65;;;;;;;2.78;77.19;91916.09;5100826;28;20038;-54
2021/12/07 11:44:37;;;;;;;12.18;6.00;;;;;;;2.81;78.04;91910.31;5099368;28;20052;-54
2021/12/07 11:47:05;;;;;;;9.25;6.07;;;;;;;2.82;77.51;91916.47;5100270;27;20042;-50
2021/12/07 11:49:32;;;;;;;10.35;7.00;;;;;;;2.95;77.86;91919.84;5100588;28;20024;-53
2021/12/07 11:52:00;;;;;;;4.63;4.22;;;;;;;2.92;77.54;91918.19;5097490;28;20115;-55
2021/12/07 11:54:28;;;;;;;6.75;4.90;;;;;;;2.97;77.01;91925.47;5101897;28;20028;-54
2021/12/07 11:56:54;;;;;;;9.88;6.90;;;;;;;3.06;77.38;91929.72;5099437;28;20077;-48
2021/12/07 11:59:20;;;;;;;10.15;6.30;;;;;;;3.10;77.20;91926.66;5099101;28;20028;-54
2021/12/07 12:01:47;;;;;;;11.30;7.25;;;;;;;3.06;77.15;91930.44;5099658;28;20035;-56
2021/12/07 12:04:15;;;;;;;11.10;6.90;;;;;;;3.02;77.09;91927.34;5099694;28;20066;-49
2021/12/07 12:06:43;;;;;;;12.68;8.48;;;;;;;2.98;77.56;91920.75;5101092;28;20058;-55
2021/12/07 12:09:09;;;;;;;15.55;8.93;;;;;;;2.88;77.30;91912.34;5099456;28;20035;-55
2021/12/07 12:12:12;;;;;;;13.77;8.77;;;;;;;2.95;77.01;91908.19;5098170;28;20101;-50
2021/12/07 12:14:46;;;;;;;13.15;8.95;;;;;;;3.01;75.93;91914.97;5099455;28;20385;-52
2021/12/07 12:17:46;;;;;;;7.30;5.75;;;;;;;2.79;76.18;91907.41;5097861;28;20076;-52
2021/12/07 12:20:11;;;;;;;7.72;6.05;;;;;;;2.70;77.25;91902.44;5102045;28;20020;-53
2021/12/07 12:22:39;;;;;;;12.15;7.97;;;;;;;2.85;77.62;91901.78;5099228;28;20500;-51
2021/12/07 12:25:08;;;;;;;7.95;5.25;;;;;;;2.89;77.20;91885.81;5095108;28;20036;-53
2021/12/07 12:27:35;;;;;;;11.05;7.85;;;;;;;2.90;76.85;91912.53;5099197;28;20454;-56
2021/12/07 12:30:16;;;;;;;9.50;6.85;;;;;;;2.91;77.06;91903.09;5101705;28;20110;-51
2021/12/07 12:32:44;;;;;;;6.90;4.97;;;;;;;2.98;76.36;91896.97;5100207;28;20024;-54
2021/12/07 12:35:10;;;;;;;7.18;3.30;;;;;;;3.09;76.26;91893.19;5099468;28;20031;-49
2021/12/07 12:37:36;;;;;;;12.73;7.18;;;;;;;3.13;76.20;91892.84;5099622;28;20035;-54
2021/12/07 12:40:06;;;;;;;12.73;6.25;;;;;;;3.08;76.85;91895.19;5099520;28;20559;-48
2021/12/07 12:42:42;;;;;;;5.90;4.78;;;;;;;3.02;76.90;91891.16;5099859;28;20120;-49
2021/12/07 12:45:27;;;;;;;8.15;6.22;;;;;;;3.21;77.00;91897.06;5100032;28;20050;-48
2021/12/07 12:48:02;;;;;;;11.23;7.78;;;;;;;3.21;76.83;91899.06;5099941;28;20036;-50
2021/12/07 12:50:46;;;;;;;10.20;6.65;;;;;;;3.24;76.43;91898.00;5100825;28;20089;-51
2021/12/07 12:53:30;;;;;;;9.45;6.28;;;;;;;3.14;77.38;91905.94;5100431;28;20088;-47
2021/12/07 12:55:59;;;;;;;6.25;4.70;;;;;;;3.24;76.99;91909.63;5097694;28;20036;-50
2021/12/07 12:58:28;;;;;;;6.38;4.07;;;;;;;3.20;76.01;91911.25;5102517;28;20047;-56
2021/12/07 13:01:00;;;;;;;3.95;3.30;;;;;;;3.06;76.11;91911.34;5100938;28;20446;-55
2021/12/07 13:03:40;;;;;;;10.52;6.68;;;;;;;2.82;77.53;91909.03;5098651;28;20111;-53
2021/12/07 13:06:05;;;;;;;9.68;6.57;;;;;;;2.83;77.58;91912.50;5098266;28;20111;-52
2021/12/07 13:08:31;;;;;;;7.78;5.20;;;;;;;2.89;77.02;91908.34;5098489;28;20042;-49
2021/12/07 13:11:03;;;;;;;7.45;5.25;;;;;;;2.91;77.59;91903.09;5099129;28;20057;-50
2021/12/07 13:13:34;;;;;;;15.35;9.45;;;;;;;3.03;77.92;91903.53;5096157;28;20031;-50
2021/12/07 13:16:12;;;;;;;9.10;6.60;;;;;;;2.97;78.31;91900.22;5101934;28;20032;-50